Aérodrome :
LOGIN :

S'inscrire | Disclaimer

   EN    FR    IT 

 










Légende :    VFR   VFR Marginal   IFR   IFR Intensif   IFR Très Intensif
Visi : 
Plafond : 
>= 8 km
>= 3000ft
5 à 8 km
1000 à 3000 ft
1500m à 5 km
500 à 1000 ft
800 à 1500m
200 à 500 ft
< 800m
< 200 ft
Symboles :   Orages  Brouillard  Fortes neiges  Fortes précipitations  Vent > 20 kt
SIGMETs :   Divers  Orages  Givrage  Turbulence  Onde Orograph.  Cendres Volcan.






- Altitude de l'aérodrome : 499 ft
- Code IATA : TLS


LFBO - Toulouse / Blagnac

DERNIER METAR :
  • 182000Z AUTO 29009KT 9999 FEW010 BKN060 OVC120 12/11 Q1022 TEMPO 4000 SHRA BKN020 FEW030TCU

METARs EXPIRÉS :
  • 181930Z AUTO 29010KT 9999 SCT013 BKN044 BKN052 12/11 Q1022 TEMPO 4000 SHRA BKN020 FEW030TCU
  • 181900Z AUTO 28008KT 9999 FEW010 BKN040 OVC052 12/11 Q1021 NOSIG
  • 181830Z AUTO 29009KT 250V310 9999 FEW009 BKN040 BKN056 12/11 Q1021 NOSIG
  • 181800Z AUTO 30009KT 9999 -RADZ BKN033 BKN041 OVC100 12/10 Q1020 NOSIG
  • 181730Z AUTO 30008KT 9999 BKN029 OVC034 11/10 Q1020 BECMG FEW035TCU BKN080

TAF TAF LFBO
Valide du 18 à 18h jusqu'au 20 à 00h UTC


181700Z 1818/1924 28008KT 9999 SCT030 BKN090
TEMPO 1821/1823 4000 SHRA BKN020 FEW030TCU
BECMG 1907/1909 SCT020TCU BKN050
TEMPO 1909/1917 29016G26KT 4000 SHRA
BECMG 1917/1919 SCT045
ATIS : +33 5 62 74 66 36



MET'MAP, la Météo Aéronautique d'un coup d'oeil ! - Copyright ORBIFLY Décembre 2007 - Disclaimer

ORBIFLY MET'MAP TEAM :

Programmation & Développement : Alexandra Zaïnal
Sur une idée originale de : Baudouin d'Aumeries
Assistance à la programmation : Marc-Olivier Méhu
Soutien technique & logistique : Manuel Goepfert

Contact : metmap@orbifly.com




SOURCES & CREDITS :

   NOAA